createdAt,value
2023-05-09T00:02:07.901Z,33.20
2023-05-09T00:04:35.277Z,30.88
2023-05-09T00:07:01.891Z,30.73
2023-05-09T00:09:28.401Z,30.10
2023-05-09T00:11:54.865Z,30.20
2023-05-09T00:14:21.838Z,29.92
2023-05-09T00:16:48.390Z,34.00
2023-05-09T00:19:14.928Z,34.10
2023-05-09T00:21:41.445Z,32.53
2023-05-09T00:24:07.999Z,30.83
2023-05-09T00:26:34.469Z,31.92
2023-05-09T00:29:00.987Z,29.60
2023-05-09T00:31:27.992Z,32.35
2023-05-09T00:33:54.631Z,31.05
2023-05-09T00:36:21.331Z,29.67
2023-05-09T00:38:47.827Z,41.03
2023-05-09T00:41:14.576Z,35.20
2023-05-09T00:43:41.098Z,35.55
2023-05-09T00:46:07.812Z,28.05
2023-05-09T00:48:35.564Z,31.40
2023-05-09T00:51:02.327Z,32.33
2023-05-09T00:53:28.868Z,31.73
2023-05-09T00:55:56.703Z,31.60
2023-05-09T00:58:23.842Z,37.25
2023-05-09T01:00:50.634Z,31.00
2023-05-09T01:03:17.835Z,30.52
2023-05-09T01:05:58.442Z,36.35
2023-05-09T01:08:45.392Z,38.72
2023-05-09T01:11:21.187Z,32.45
2023-05-09T01:14:23.086Z,35.77
2023-05-09T01:17:00.770Z,39.08
2023-05-09T01:19:30.460Z,37.05
2023-05-09T01:21:59.448Z,38.42
2023-05-09T01:25:05.201Z,39.42
2023-05-09T01:27:48.487Z,34.70
2023-05-09T01:30:16.853Z,36.35
2023-05-09T01:32:43.935Z,44.30
2023-05-09T01:35:14.510Z,41.00
2023-05-09T01:37:43.342Z,39.33
2023-05-09T01:40:21.721Z,38.43
2023-05-09T01:42:56.900Z,36.75
2023-05-09T01:45:24.892Z,37.17
2023-05-09T01:47:52.059Z,40.83
2023-05-09T01:50:20.081Z,43.92
2023-05-09T01:52:49.329Z,44.63
2023-05-09T01:55:17.541Z,39.38
2023-05-09T01:57:45.357Z,40.53
2023-05-09T02:00:13.728Z,39.25
2023-05-09T02:02:41.553Z,41.40
2023-05-09T02:05:10.243Z,37.13
2023-05-09T02:07:37.185Z,41.38
2023-05-09T02:10:05.016Z,39.17
2023-05-09T02:12:31.492Z,41.30
2023-05-09T02:14:58.041Z,41.85
2023-05-09T02:17:24.715Z,39.43
2023-05-09T02:19:51.224Z,40.00
2023-05-09T02:22:17.994Z,43.50
2023-05-09T02:24:47.250Z,39.28
2023-05-09T02:27:15.401Z,36.97
2023-05-09T02:29:46.747Z,40.40
2023-05-09T02:32:23.135Z,33.72
2023-05-09T02:34:52.237Z,37.10
2023-05-09T02:37:19.114Z,33.00
2023-05-09T02:39:45.996Z,40.47
2023-05-09T02:42:15.925Z,33.23
2023-05-09T02:44:42.416Z,35.88
2023-05-09T02:47:09.141Z,31.85
2023-05-09T02:49:35.596Z,37.05
2023-05-09T02:52:02.080Z,35.10
2023-05-09T02:54:28.902Z,38.53
2023-05-09T02:56:55.409Z,36.10
2023-05-09T02:59:21.900Z,37.95
2023-05-09T03:01:48.463Z,38.45
2023-05-09T03:04:15.040Z,34.08
2023-05-09T03:06:41.831Z,37.63
2023-05-09T03:09:08.310Z,33.78
2023-05-09T03:11:36.790Z,34.63
2023-05-09T03:14:04.063Z,36.88
2023-05-09T03:16:30.984Z,36.47
2023-05-09T03:18:57.541Z,32.77
2023-05-09T03:21:24.194Z,33.58
2023-05-09T03:23:50.682Z,32.08
2023-05-09T03:26:17.162Z,32.90
2023-05-09T03:28:43.749Z,27.85
2023-05-09T03:31:10.218Z,31.17
2023-05-09T03:33:36.869Z,35.28
2023-05-09T03:36:03.480Z,32.42
2023-05-09T03:38:30.033Z,33.00
2023-05-09T03:40:56.570Z,36.70
2023-05-09T03:43:23.039Z,38.27
2023-05-09T03:45:49.497Z,39.70
2023-05-09T03:48:16.204Z,44.45
2023-05-09T03:50:42.708Z,40.63
2023-05-09T03:53:09.914Z,32.90
2023-05-09T03:55:36.382Z,35.37
2023-05-09T03:58:03.567Z,39.72
2023-05-09T04:00:30.097Z,38.85
2023-05-09T04:02:56.805Z,37.33
2023-05-09T04:05:23.448Z,44.75
2023-05-09T04:07:49.898Z,39.40
2023-05-09T04:10:16.358Z,39.40
2023-05-09T04:12:42.812Z,36.78
2023-05-09T04:15:09.934Z,34.85
2023-05-09T04:17:36.559Z,37.58
2023-05-09T04:20:03.787Z,34.33
2023-05-09T04:22:30.273Z,34.45
2023-05-09T04:24:57.317Z,35.40
2023-05-09T04:27:23.820Z,34.90
2023-05-09T04:29:50.403Z,33.17
2023-05-09T04:32:17.597Z,32.20
2023-05-09T04:34:44.180Z,34.63
2023-05-09T04:37:11.120Z,29.95
2023-05-09T04:39:37.643Z,33.25
2023-05-09T04:42:04.357Z,34.10
2023-05-09T04:44:31.274Z,31.53
2023-05-09T04:46:58.155Z,32.15
2023-05-09T04:49:24.907Z,32.55
2023-05-09T04:51:51.727Z,34.45
2023-05-09T04:54:18.348Z,28.75
2023-05-09T04:56:44.881Z,32.30
2023-05-09T04:59:11.368Z,28.23
2023-05-09T05:01:37.903Z,28.13
2023-05-09T05:04:04.813Z,25.08
2023-05-09T05:06:32.041Z,22.83
2023-05-09T05:08:58.531Z,30.27
2023-05-09T05:11:25.082Z,29.38
2023-05-09T05:13:51.594Z,24.85
2023-05-09T05:16:18.128Z,25.20
2023-05-09T05:18:44.649Z,26.20
2023-05-09T05:21:11.159Z,25.20
2023-05-09T05:23:38.004Z,24.75
2023-05-09T05:26:04.546Z,20.65
2023-05-09T05:28:31.077Z,22.92
2023-05-09T05:30:57.608Z,20.50
2023-05-09T05:33:24.144Z,20.50
2023-05-09T05:35:51.630Z,18.92
2023-05-09T05:38:18.229Z,21.50
2023-05-09T05:40:44.706Z,17.80
2023-05-09T05:43:11.240Z,19.17
2023-05-09T05:45:37.818Z,16.73
2023-05-09T05:48:04.662Z,18.95
2023-05-09T05:50:31.172Z,19.33
2023-05-09T05:52:57.626Z,18.85
2023-05-09T05:55:24.094Z,19.25
2023-05-09T05:57:50.543Z,18.10
2023-05-09T06:00:17.362Z,20.88
2023-05-09T06:02:44.697Z,17.52
2023-05-09T06:05:11.977Z,18.00
2023-05-09T06:07:40.173Z,17.63
2023-05-09T06:10:08.055Z,16.17
2023-05-09T06:12:34.547Z,12.38
2023-05-09T06:15:01.008Z,15.95
2023-05-09T06:17:28.190Z,15.60
2023-05-09T06:19:54.729Z,14.35
2023-05-09T06:22:21.309Z,17.07
2023-05-09T06:24:48.557Z,15.73
2023-05-09T06:27:15.068Z,17.70
2023-05-09T06:29:41.594Z,16.15
2023-05-09T06:32:08.074Z,19.27
2023-05-09T06:34:34.680Z,17.03
2023-05-09T06:37:01.261Z,18.27
2023-05-09T06:39:27.823Z,18.23
2023-05-09T06:41:54.392Z,17.60
2023-05-09T06:44:20.930Z,16.63
2023-05-09T06:46:47.532Z,16.43
2023-05-09T06:49:14.203Z,17.77
2023-05-09T06:51:40.786Z,17.95
2023-05-09T06:54:07.478Z,18.98
2023-05-09T06:56:34.079Z,14.40
2023-05-09T06:59:00.619Z,17.97
2023-05-09T07:01:27.211Z,15.77
2023-05-09T07:03:53.755Z,18.60
2023-05-09T07:06:20.691Z,17.05
2023-05-09T07:08:47.238Z,17.13
2023-05-09T07:11:13.741Z,15.33
2023-05-09T07:13:40.256Z,17.55
2023-05-09T07:16:06.867Z,17.20
2023-05-09T07:18:33.384Z,17.80
2023-05-09T07:20:59.848Z,19.77
2023-05-09T07:23:27.104Z,15.90
2023-05-09T07:25:59.826Z,18.20
2023-05-09T07:28:26.432Z,17.15
2023-05-09T07:30:55.336Z,19.42
2023-05-09T07:33:21.972Z,17.95
2023-05-09T07:35:48.501Z,21.07
2023-05-09T07:38:15.056Z,16.90
2023-05-09T07:40:41.574Z,14.90
2023-05-09T07:43:08.107Z,13.15
2023-05-09T07:45:34.851Z,15.15
2023-05-09T07:48:01.574Z,16.27
2023-05-09T07:50:28.102Z,15.98
2023-05-09T07:52:55.650Z,15.88
2023-05-09T07:55:22.273Z,13.65
2023-05-09T07:57:48.768Z,17.33
2023-05-09T08:00:16.416Z,14.47
2023-05-09T08:02:43.124Z,16.48
2023-05-09T08:05:11.676Z,18.02
2023-05-09T08:07:38.385Z,15.32
2023-05-09T08:10:05.380Z,14.43
2023-05-09T08:12:32.313Z,14.33
2023-05-09T08:14:58.788Z,17.02
2023-05-09T08:17:25.454Z,16.15
2023-05-09T08:19:52.172Z,14.90
2023-05-09T08:22:19.580Z,13.55
2023-05-09T08:24:47.431Z,13.33
2023-05-09T08:27:15.482Z,13.10
2023-05-09T08:29:42.789Z,13.52
2023-05-09T08:32:09.941Z,12.00
2023-05-09T08:34:36.607Z,11.55
2023-05-09T08:37:04.391Z,14.00
2023-05-09T08:39:31.394Z,9.35
2023-05-09T08:42:02.347Z,12.02
2023-05-09T08:44:30.429Z,9.32
2023-05-09T08:47:01.404Z,9.52
2023-05-09T08:49:28.781Z,10.73
2023-05-09T08:51:56.474Z,8.45
2023-05-09T08:54:23.802Z,10.73
2023-05-09T08:56:51.057Z,8.80
2023-05-09T08:59:18.897Z,6.60
2023-05-09T09:01:46.003Z,7.90
2023-05-09T09:04:12.782Z,6.55
2023-05-09T09:06:40.526Z,9.40
2023-05-09T09:09:11.483Z,7.82
2023-05-09T09:11:40.396Z,7.22
2023-05-09T09:14:15.625Z,7.37
2023-05-09T09:16:44.401Z,7.95
2023-05-09T09:19:13.445Z,6.10
2023-05-09T09:21:45.596Z,8.40
2023-05-09T09:24:19.623Z,7.47
2023-05-09T09:26:48.388Z,7.97
2023-05-09T09:29:15.770Z,6.45
2023-05-09T09:31:46.606Z,6.53
2023-05-09T09:34:19.194Z,5.97
2023-05-09T09:36:46.992Z,9.55
2023-05-09T09:39:14.412Z,7.57
2023-05-09T09:41:41.223Z,6.20
2023-05-09T09:44:16.531Z,7.10
2023-05-09T09:46:51.246Z,5.30
2023-05-09T09:49:24.031Z,5.65
2023-05-09T09:51:59.591Z,6.47
2023-05-09T09:54:27.798Z,7.13
2023-05-09T09:56:55.286Z,5.63
2023-05-09T09:59:25.067Z,5.18
2023-05-09T10:02:08.232Z,4.78
2023-05-09T10:04:37.494Z,5.73
2023-05-09T10:07:06.241Z,8.35
2023-05-09T10:09:34.682Z,4.90
2023-05-09T10:12:06.458Z,5.45
2023-05-09T10:14:35.576Z,8.93
2023-05-09T10:17:04.395Z,5.37
2023-05-09T10:19:31.909Z,6.60
2023-05-09T10:22:02.733Z,8.98
2023-05-09T10:24:39.721Z,7.45
2023-05-09T10:27:10.643Z,5.57
2023-05-09T10:29:50.052Z,5.90
2023-05-09T10:32:23.574Z,6.43
2023-05-09T10:34:54.512Z,5.07
2023-05-09T10:37:22.002Z,5.15
2023-05-09T10:39:53.164Z,4.95
2023-05-09T10:42:20.261Z,5.47
2023-05-09T10:44:47.829Z,7.57
2023-05-09T10:47:15.500Z,4.97
2023-05-09T10:49:44.254Z,5.32
2023-05-09T10:52:10.969Z,5.97
2023-05-09T10:54:37.928Z,9.97
2023-05-09T10:57:06.395Z,6.28
2023-05-09T10:59:43.432Z,5.35
2023-05-09T11:02:15.662Z,7.07
2023-05-09T11:04:42.305Z,5.03
2023-05-09T11:07:26.340Z,6.50
2023-05-09T11:10:07.072Z,5.75
2023-05-09T11:12:33.533Z,7.07
2023-05-09T11:15:08.127Z,6.03
2023-05-09T11:17:38.732Z,4.85
2023-05-09T11:20:06.506Z,6.57
2023-05-09T11:22:43.824Z,5.28
2023-05-09T11:25:15.091Z,4.60
2023-05-09T11:27:52.152Z,4.55
2023-05-09T11:30:20.618Z,6.88
2023-05-09T11:32:51.332Z,5.23
2023-05-09T11:35:22.925Z,5.43
2023-05-09T11:37:52.409Z,5.20
2023-05-09T11:40:20.868Z,4.75
2023-05-09T11:42:57.695Z,5.40
2023-05-09T11:45:30.606Z,6.43
2023-05-09T11:47:57.708Z,5.72
2023-05-09T11:50:24.689Z,5.10
2023-05-09T11:52:51.306Z,5.97
2023-05-09T11:55:22.892Z,4.88
2023-05-09T11:57:51.731Z,7.00
2023-05-09T12:00:23.260Z,5.63
2023-05-09T12:02:51.265Z,4.47
2023-05-09T12:05:19.821Z,4.57
2023-05-09T12:07:47.606Z,6.15
2023-05-09T12:10:16.017Z,4.10
2023-05-09T12:12:45.479Z,4.22
2023-05-09T12:15:13.714Z,3.78
2023-05-09T12:17:41.785Z,4.38
2023-05-09T12:20:08.988Z,5.70
2023-05-09T12:22:37.508Z,5.30
2023-05-09T12:25:09.627Z,5.05
2023-05-09T12:27:37.784Z,4.95
2023-05-09T12:30:10.227Z,4.97
2023-05-09T12:32:40.680Z,4.50
2023-05-09T12:35:09.498Z,5.90
2023-05-09T12:37:36.473Z,5.03
2023-05-09T12:40:12.800Z,5.15
2023-05-09T12:42:43.176Z,4.25
2023-05-09T12:45:10.461Z,4.13
2023-05-09T12:47:39.168Z,4.27
2023-05-09T12:50:07.418Z,4.90
2023-05-09T12:52:36.691Z,5.28
2023-05-09T12:55:09.582Z,5.10
2023-05-09T12:57:36.096Z,5.03
2023-05-09T13:00:06.437Z,5.97
2023-05-09T13:02:38.482Z,6.50
2023-05-09T13:05:17.830Z,5.00
2023-05-09T13:07:45.958Z,5.05
2023-05-09T13:10:18.414Z,5.88
2023-05-09T13:12:48.105Z,5.07
2023-05-09T13:15:22.456Z,4.78
2023-05-09T13:17:51.701Z,4.95
2023-05-09T13:20:19.359Z,4.30
2023-05-09T13:22:46.632Z,4.78
2023-05-09T13:25:13.675Z,4.17
2023-05-09T13:27:40.239Z,8.05
2023-05-09T13:30:10.003Z,4.10
2023-05-09T13:32:36.724Z,4.22
2023-05-09T13:35:06.527Z,3.72
2023-05-09T13:37:33.519Z,3.60
2023-05-09T13:40:00.037Z,3.40
2023-05-09T13:42:27.519Z,3.33
2023-05-09T13:44:54.125Z,4.60
2023-05-09T13:47:21.100Z,4.50
2023-05-09T13:49:47.746Z,3.40
2023-05-09T13:52:16.114Z,3.50
2023-05-09T13:54:42.661Z,3.88
2023-05-09T13:57:09.487Z,3.28
2023-05-09T13:59:36.303Z,3.35
2023-05-09T14:02:03.356Z,3.60
2023-05-09T14:04:34.107Z,3.08
2023-05-09T14:07:01.396Z,2.90
2023-05-09T14:09:28.847Z,3.22
2023-05-09T14:11:56.690Z,4.28
2023-05-09T14:14:25.494Z,3.23
2023-05-09T14:16:52.140Z,3.60
2023-05-09T14:19:18.768Z,3.50
2023-05-09T14:21:48.856Z,3.83
2023-05-09T14:24:16.466Z,3.10
2023-05-09T14:26:43.802Z,3.27
2023-05-09T14:29:10.939Z,3.05
2023-05-09T14:31:37.602Z,4.45
2023-05-09T14:34:05.226Z,3.15
2023-05-09T14:36:32.462Z,3.85
2023-05-09T14:38:58.973Z,3.30
2023-05-09T14:41:25.505Z,2.85
2023-05-09T14:43:52.434Z,3.03
2023-05-09T14:46:19.136Z,2.67
2023-05-09T14:48:45.803Z,3.00
2023-05-09T14:51:12.319Z,2.50
2023-05-09T14:53:42.073Z,2.33
2023-05-09T14:56:11.120Z,3.58
2023-05-09T14:58:37.786Z,2.20
2023-05-09T15:01:04.508Z,2.47
2023-05-09T15:03:31.361Z,2.40
2023-05-09T15:05:58.701Z,2.70
2023-05-09T15:08:25.938Z,2.97
2023-05-09T15:10:52.870Z,2.95
2023-05-09T15:13:19.520Z,6.35
2023-05-09T15:15:46.141Z,2.70
2023-05-09T15:18:13.393Z,4.45
2023-05-09T15:20:39.959Z,2.45
2023-05-09T15:23:07.871Z,2.53
2023-05-09T15:25:34.705Z,3.72
2023-05-09T15:28:01.241Z,2.93
2023-05-09T15:30:28.180Z,2.40
2023-05-09T15:32:54.722Z,3.60
2023-05-09T15:35:21.392Z,2.97
2023-05-09T15:37:47.852Z,2.40
2023-05-09T15:40:14.687Z,2.43
2023-05-09T15:42:41.506Z,2.58
2023-05-09T15:45:08.531Z,2.30
2023-05-09T15:47:35.856Z,2.60
2023-05-09T15:50:02.389Z,2.83
2023-05-09T15:52:29.158Z,2.60
2023-05-09T15:54:56.009Z,2.85
2023-05-09T15:57:23.105Z,2.42
2023-05-09T15:59:49.630Z,3.45
2023-05-09T16:02:16.244Z,3.58
2023-05-09T16:04:43.937Z,2.63
2023-05-09T16:07:10.867Z,2.47
2023-05-09T16:09:37.907Z,2.55
2023-05-09T16:12:04.787Z,1.98
2023-05-09T16:14:31.390Z,1.20
2023-05-09T16:16:57.907Z,1.80
2023-05-09T16:19:24.520Z,1.17
2023-05-09T16:21:51.129Z,2.47
2023-05-09T16:24:17.657Z,2.47
2023-05-09T16:26:44.184Z,1.48
2023-05-09T16:29:11.244Z,1.60
2023-05-09T16:31:37.879Z,2.20
2023-05-09T16:34:04.489Z,1.40
2023-05-09T16:36:33.638Z,1.38
2023-05-09T16:39:00.229Z,3.08
2023-05-09T16:41:27.133Z,3.83
2023-05-09T16:43:53.804Z,1.90
2023-05-09T16:46:20.686Z,2.55
2023-05-09T16:48:47.370Z,2.60
2023-05-09T16:51:13.937Z,3.13
2023-05-09T16:53:41.222Z,2.50
2023-05-09T16:56:07.958Z,1.90
2023-05-09T16:58:36.576Z,2.45
2023-05-09T17:01:03.821Z,2.40
2023-05-09T17:03:31.099Z,2.63
2023-05-09T17:05:57.624Z,2.70
2023-05-09T17:08:24.192Z,2.72
2023-05-09T17:10:50.709Z,3.15
2023-05-09T17:13:17.413Z,4.10
2023-05-09T17:15:44.320Z,2.60
2023-05-09T17:18:12.264Z,3.27
2023-05-09T17:20:40.808Z,3.03
2023-05-09T17:23:07.384Z,3.13
2023-05-09T17:25:33.886Z,2.70
2023-05-09T17:28:00.395Z,3.20
2023-05-09T17:30:27.434Z,3.00
2023-05-09T17:32:54.056Z,3.17
2023-05-09T17:35:22.456Z,3.67
2023-05-09T17:37:48.959Z,3.05
2023-05-09T17:40:16.037Z,3.60
2023-05-09T17:42:43.017Z,3.20
2023-05-09T17:45:11.650Z,3.40
2023-05-09T17:47:39.041Z,4.03
2023-05-09T17:50:09.773Z,3.58
2023-05-09T17:52:37.209Z,3.80
2023-05-09T17:55:04.053Z,3.93
2023-05-09T17:57:30.880Z,6.05
2023-05-09T17:59:58.261Z,4.28
2023-05-09T18:02:25.309Z,4.03
2023-05-09T18:04:52.388Z,4.53
2023-05-09T18:07:19.017Z,3.97
2023-05-09T18:09:46.501Z,3.85
2023-05-09T18:12:13.004Z,3.88
2023-05-09T18:14:40.063Z,3.60
2023-05-09T18:17:09.456Z,4.13
2023-05-09T18:19:35.991Z,4.13
2023-05-09T18:22:03.238Z,3.95
2023-05-09T18:24:29.836Z,3.60
2023-05-09T18:26:57.118Z,3.83
2023-05-09T18:29:23.660Z,3.60
2023-05-09T18:31:50.586Z,3.70
2023-05-09T18:34:17.355Z,3.47
2023-05-09T18:36:43.860Z,3.58
2023-05-09T18:39:12.017Z,3.67
2023-05-09T18:41:38.495Z,3.58
2023-05-09T18:44:05.320Z,3.37
2023-05-09T18:46:33.697Z,3.15
2023-05-09T18:49:01.159Z,3.50
2023-05-09T18:51:27.680Z,3.42
2023-05-09T18:53:54.175Z,4.10
2023-05-09T18:56:22.219Z,3.63
2023-05-09T18:58:52.133Z,4.25
2023-05-09T19:01:19.149Z,4.65
2023-05-09T19:03:46.371Z,3.97
2023-05-09T19:06:14.937Z,5.47
2023-05-09T19:08:43.512Z,5.27
2023-05-09T19:11:11.685Z,3.60
2023-05-09T19:13:40.069Z,4.38
2023-05-09T19:16:08.176Z,4.43
2023-05-09T19:18:34.988Z,3.85
2023-05-09T19:21:01.696Z,5.33
2023-05-09T19:23:28.191Z,4.40
2023-05-09T19:25:55.336Z,4.32
2023-05-09T19:28:23.073Z,4.47
2023-05-09T19:30:52.928Z,4.45
2023-05-09T19:33:19.660Z,5.67
2023-05-09T19:35:46.223Z,3.50
2023-05-09T19:38:12.873Z,5.25
2023-05-09T19:40:40.202Z,4.90
2023-05-09T19:43:06.958Z,3.40
2023-05-09T19:45:33.638Z,3.00
2023-05-09T19:48:00.694Z,3.38
2023-05-09T19:50:27.396Z,2.72
2023-05-09T19:52:53.958Z,3.80
2023-05-09T19:55:20.611Z,2.63
2023-05-09T19:57:47.313Z,2.43
2023-05-09T20:00:14.643Z,2.60
2023-05-09T20:02:41.497Z,2.60
2023-05-09T20:05:08.682Z,3.55
2023-05-09T20:07:35.137Z,3.38
2023-05-09T20:10:01.684Z,2.63
2023-05-09T20:12:30.182Z,5.00
2023-05-09T20:14:57.099Z,3.00
2023-05-09T20:17:23.843Z,2.60
2023-05-09T20:19:50.917Z,2.60
2023-05-09T20:22:19.543Z,2.73
2023-05-09T20:24:47.530Z,2.58
2023-05-09T20:27:14.312Z,2.60
2023-05-09T20:29:42.269Z,2.88
2023-05-09T20:32:09.212Z,2.85
2023-05-09T20:34:36.108Z,2.70
2023-05-09T20:37:02.974Z,3.15
2023-05-09T20:39:29.764Z,4.93
2023-05-09T20:41:58.792Z,3.55
2023-05-09T20:44:30.746Z,3.70
2023-05-09T20:47:00.823Z,2.40
2023-05-09T20:49:30.731Z,2.55
2023-05-09T20:52:01.940Z,4.30
2023-05-09T20:54:29.097Z,3.97
2023-05-09T20:56:55.929Z,2.83
2023-05-09T20:59:27.297Z,4.17
2023-05-09T21:01:55.672Z,2.90
2023-05-09T21:04:26.911Z,4.18
2023-05-09T21:06:53.758Z,4.13
2023-05-09T21:09:20.414Z,3.70
2023-05-09T21:11:47.035Z,4.47
2023-05-09T21:14:13.618Z,4.45
2023-05-09T21:16:40.346Z,4.00
2023-05-09T21:19:09.233Z,4.35
2023-05-09T21:21:35.794Z,3.80
2023-05-09T21:24:04.326Z,3.90
2023-05-09T21:26:30.927Z,4.47
2023-05-09T21:28:57.555Z,7.00
2023-05-09T21:31:24.120Z,7.00
2023-05-09T21:33:50.923Z,4.95
2023-05-09T21:36:17.639Z,5.30
2023-05-09T21:38:44.150Z,5.43
2023-05-09T21:41:10.810Z,5.10
2023-05-09T21:43:37.722Z,7.18
2023-05-09T21:46:05.809Z,8.10
2023-05-09T21:48:32.735Z,10.27
2023-05-09T21:51:03.148Z,9.52
2023-05-09T21:53:29.743Z,6.72
2023-05-09T21:55:56.268Z,5.43
2023-05-09T21:58:22.726Z,6.90
2023-05-09T22:00:49.304Z,6.33
2023-05-09T22:03:15.864Z,6.97
2023-05-09T22:05:42.486Z,7.50
2023-05-09T22:08:09.154Z,7.40
2023-05-09T22:10:37.807Z,6.93
2023-05-09T22:13:04.557Z,9.90
2023-05-09T22:15:31.241Z,8.85
2023-05-09T22:17:58.009Z,7.85
2023-05-09T22:20:24.711Z,8.10
2023-05-09T22:22:51.332Z,7.63
2023-05-09T22:25:17.961Z,8.70
2023-05-09T22:27:44.495Z,8.27
2023-05-09T22:30:12.438Z,8.40
2023-05-09T22:32:39.434Z,9.95
2023-05-09T22:35:06.816Z,9.23
2023-05-09T22:37:33.302Z,8.87
2023-05-09T22:40:01.475Z,8.50
2023-05-09T22:42:29.370Z,9.90
2023-05-09T22:44:55.986Z,10.10
2023-05-09T22:47:22.520Z,10.73
2023-05-09T22:49:50.368Z,11.40
2023-05-09T22:52:17.138Z,10.43
2023-05-09T22:54:43.798Z,11.40
2023-05-09T22:57:10.690Z,13.85
2023-05-09T22:59:37.200Z,13.20
2023-05-09T23:02:04.751Z,10.80
2023-05-09T23:04:31.341Z,12.30
2023-05-09T23:06:57.820Z,11.93
2023-05-09T23:09:24.461Z,12.10
2023-05-09T23:11:51.581Z,13.88
2023-05-09T23:14:18.088Z,13.90
2023-05-09T23:16:44.582Z,13.00
2023-05-09T23:19:11.038Z,13.55
2023-05-09T23:21:37.658Z,14.07
2023-05-09T23:24:04.448Z,12.60
2023-05-09T23:26:30.923Z,14.83
2023-05-09T23:28:57.471Z,13.85
2023-05-09T23:31:24.109Z,10.88
2023-05-09T23:33:50.671Z,12.35
2023-05-09T23:36:17.302Z,15.25
2023-05-09T23:38:43.856Z,11.20
2023-05-09T23:41:10.462Z,10.65
2023-05-09T23:43:37.877Z,12.70
2023-05-09T23:46:04.524Z,14.55
2023-05-09T23:48:31.178Z,15.52
2023-05-09T23:50:57.700Z,14.27
2023-05-09T23:53:24.159Z,16.75
2023-05-09T23:55:50.850Z,13.90
2023-05-09T23:58:17.332Z,16.05
